Forside
METAR-TAF:

METAR-TAF

Lufthavne :

Palma de Mallorca Lufthavn

Palma de Mallorca, Spanien

Breddekreds: 39-33N, længdekreds: 002-44E, højde: 4 m

Aktuelle vejr

Denne rapport blev lavet for 39 minutter siden, kl. 17:30 UTC
Vind 11 kt fra nordøst
Temperatur 28°C
Fugtighed 66%
Tryk 1015 hPa
Sigt 10 km eller mere
Nogle få skyer i en højde af 2500 ft
Spredte skyer i en højde af 4200 ft

METAR: LEPA 141730Z 05011KT 9999 FEW025 SCT042 28/21 Q1015 NOSIG

Tid: 20:09 (18:09 UTC)

Vejrudsigter

Denne rapport blev lavet for 1 time og 9 minutter siden, kl. 17:00 UTC
Foreløbig gælder fra 14 på 18 UTC til 15 på 18 UTC
Vind 10 kt fra nordøst
Sigt 10 km eller mere
Nogle få skyer i en højde af 3000 ft
ændring
fra 14 på 18 UTC til 14 på 20 UTC
Vind 5 kt fra nordnordøst
ændring
fra 15 på 08 UTC til 15 på 10 UTC
Vind 10 kt fra sydsydvest

TAF: LEPA 141700Z 1418/1518 05010KT 9999 FEW030 TX31/1512Z TN20/1506Z BECMG 1418/1420 03005KT BECMG 1508/1510 20010KT

Vejrobservationer og prognoser fra mere end 4000 lufthavne (METAR og TAF).

De gule og røde prikker repræsenterer de meteorologiske stationer.

Flyt musen over at se navnet på stationen.

Så klik over at se vejr observationer og prognoser.

At skifte det kort: Klik på de grønne knapper med et sort kors for at zoome ind; på den grønne knap med en bindestreg for at zoome ud; eller på de grønne pile for tilstødende kort.


METAR-TAF: